Time;durP1;ratioP1;P1;durP2;ratioP2;P2;SDS_P1;SDS_P2;PMS_P1;PMS_P2;Temp;Humidity;BMP_temperature;BMP_pressure;BME280_temperature;BME280_humidity;BME280_pressure;Samples;Min_cycle;Max_cycle;Signal;HPM_P1;HPM_P2
2022/04/16 00:01:09;;;;;;;5.20;3.70;;;;;;;-139.48;100.00;61774.03;4994879;28;20042;-69
2022/04/16 00:03:53;;;;;;;5.25;3.70;;;;;;;-139.48;100.00;61774.03;4995082;28;20049;-69
2022/04/16 00:06:37;;;;;;;7.10;3.28;;;;;;;-139.48;100.00;61774.03;4995985;28;20092;-69
2022/04/16 00:09:21;;;;;;;5.53;3.40;;;;;;;-139.48;100.00;61774.03;4994813;28;20528;-69
2022/04/16 00:12:05;;;;;;;5.40;3.30;;;;;;;-139.48;100.00;61774.03;4995000;28;20061;-69
2022/04/16 00:14:49;;;;;;;5.30;3.58;;;;;;;-139.48;100.00;61774.03;4994604;28;20100;-68
2022/04/16 00:17:36;;;;;;;5.00;3.63;;;;;;;-139.48;100.00;61774.03;4994244;28;20465;-69
2022/04/16 00:20:20;;;;;;;3.72;3.20;;;;;;;-139.48;100.00;61774.03;4995356;28;20049;-69
2022/04/16 00:23:04;;;;;;;4.97;3.40;;;;;;;-139.48;100.00;61774.03;4995459;28;20054;-69
2022/04/16 00:25:48;;;;;;;5.53;3.60;;;;;;;-139.48;100.00;61774.03;4994411;28;20049;-69
2022/04/16 00:28:34;;;;;;;3.90;3.13;;;;;;;-139.48;100.00;61774.03;4995522;28;20409;-69
2022/04/16 00:31:18;;;;;;;4.70;3.75;;;;;;;-139.48;100.00;61774.03;4994786;28;20061;-69
2022/04/16 00:34:02;;;;;;;5.15;3.20;;;;;;;-139.48;100.00;61774.03;4994476;28;20115;-69
2022/04/16 00:36:47;;;;;;;3.92;2.95;;;;;;;-139.48;100.00;61774.03;4994494;28;20402;-69
2022/04/16 00:39:31;;;;;;;5.40;3.50;;;;;;;-139.48;100.00;61774.03;4994255;28;20461;-69
2022/04/16 00:42:15;;;;;;;6.10;3.25;;;;;;;-139.48;100.00;61774.03;4994338;28;20057;-69
2022/04/16 00:44:59;;;;;;;5.07;3.67;;;;;;;-139.48;100.00;61774.03;4994098;28;20045;-69
2022/04/16 00:47:45;;;;;;;5.78;3.50;;;;;;;-139.48;100.00;61774.03;4995313;28;20105;-69
2022/04/16 00:50:29;;;;;;;5.70;3.58;;;;;;;-139.48;100.00;61774.03;4993916;28;20049;-69
2022/04/16 00:53:13;;;;;;;3.60;3.28;;;;;;;-139.48;100.00;61774.03;4994145;28;20045;-69
2022/04/16 00:55:58;;;;;;;4.47;3.28;;;;;;;-139.48;100.00;61774.03;4994844;28;20142;-69
2022/04/16 00:58:42;;;;;;;4.88;3.92;;;;;;;-139.48;100.00;61774.03;4994901;28;20129;-69
2022/04/16 01:01:25;;;;;;;5.43;3.97;;;;;;;-139.48;100.00;61774.03;4994722;28;20061;-69
2022/04/16 01:04:09;;;;;;;4.47;4.00;;;;;;;-139.48;100.00;61774.03;4994955;28;20053;-69
2022/04/16 01:06:53;;;;;;;6.82;3.67;;;;;;;-139.48;100.00;61774.03;4993674;28;20509;-69
2022/04/16 01:09:37;;;;;;;4.88;3.53;;;;;;;-139.48;100.00;61774.03;4993540;28;20090;-69
2022/04/16 01:12:21;;;;;;;4.70;3.70;;;;;;;-139.48;100.00;61774.03;4993537;28;20072;-69
2022/04/16 01:15:05;;;;;;;4.90;4.05;;;;;;;-139.48;100.00;61774.03;4994028;28;20069;-69
2022/04/16 01:17:50;;;;;;;5.07;3.85;;;;;;;-139.48;100.00;61774.03;4993760;28;20077;-69
2022/04/16 01:20:37;;;;;;;4.82;3.67;;;;;;;-139.48;100.00;61774.03;4994441;28;20113;-69
2022/04/16 01:23:21;;;;;;;3.70;3.30;;;;;;;-139.48;100.00;61774.03;4993663;28;20574;-69
2022/04/16 01:26:05;;;;;;;4.32;3.85;;;;;;;-139.48;100.00;61774.03;4994568;28;20049;-69
2022/04/16 01:28:48;;;;;;;5.13;4.05;;;;;;;-139.48;100.00;61774.03;4993077;28;20125;-69
2022/04/16 01:31:32;;;;;;;4.78;3.75;;;;;;;-139.48;100.00;61774.03;4993588;28;20145;-69
2022/04/16 01:34:17;;;;;;;5.50;4.40;;;;;;;-139.48;100.00;61774.03;4994481;28;20049;-69
2022/04/16 01:37:02;;;;;;;8.82;4.68;;;;;;;-139.48;100.00;61774.03;4993171;28;20072;-69
2022/04/16 01:39:46;;;;;;;6.55;4.55;;;;;;;-139.48;100.00;61774.03;4994226;28;20640;-69
2022/04/16 01:42:32;;;;;;;5.50;4.03;;;;;;;-139.48;100.00;61774.03;4994065;28;20108;-69
2022/04/16 01:45:18;;;;;;;4.75;4.03;;;;;;;-139.48;100.00;61774.03;4993169;28;20112;-69
2022/04/16 01:48:03;;;;;;;5.28;4.25;;;;;;;-139.48;100.00;61774.03;4993504;28;20092;-69
2022/04/16 01:50:48;;;;;;;5.35;3.97;;;;;;;-139.48;100.00;61774.03;4993172;28;20509;-69
2022/04/16 01:53:32;;;;;;;4.72;4.15;;;;;;;-139.48;100.00;61774.03;4994125;28;20528;-69
2022/04/16 01:56:16;;;;;;;7.30;4.68;;;;;;;-139.48;100.00;61774.03;4994219;28;20050;-69
2022/04/16 01:59:01;;;;;;;5.18;4.28;;;;;;;-139.48;100.00;61774.03;4994020;28;20168;-69
2022/04/16 02:01:45;;;;;;;9.55;4.70;;;;;;;-139.48;100.00;61774.03;4993817;28;20554;-69
2022/04/16 02:04:31;;;;;;;5.97;4.38;;;;;;;-139.48;100.00;61774.03;4992856;28;20096;-69
2022/04/16 02:07:15;;;;;;;5.57;4.53;;;;;;;-139.48;100.00;61774.03;4992869;28;20113;-69
2022/04/16 02:10:00;;;;;;;5.70;4.60;;;;;;;-139.48;100.00;61774.03;4993795;28;20080;-69
2022/04/16 02:12:44;;;;;;;9.77;4.53;;;;;;;-139.48;100.00;61774.03;4992814;28;20097;-69
2022/04/16 02:15:29;;;;;;;7.28;4.70;;;;;;;-139.48;100.00;61774.03;4992982;28;20471;-69
2022/04/16 02:18:13;;;;;;;7.05;4.75;;;;;;;-139.48;100.00;61774.03;4993670;28;20069;-69
2022/04/16 02:20:57;;;;;;;6.90;4.93;;;;;;;-139.48;100.00;61774.03;4993204;28;20057;-69
2022/04/16 02:23:41;;;;;;;5.07;4.55;;;;;;;-139.48;100.00;61774.03;4992968;28;20498;-69
2022/04/16 02:26:26;;;;;;;6.97;5.20;;;;;;;-139.48;100.00;61774.03;4993630;28;20568;-69
2022/04/16 02:29:10;;;;;;;7.43;4.65;;;;;;;-139.48;100.00;61774.03;4992660;28;20060;-69
2022/04/16 02:31:54;;;;;;;5.93;4.57;;;;;;;-139.48;100.00;61774.03;4993133;28;20046;-69
2022/04/16 02:34:38;;;;;;;6.70;4.30;;;;;;;-139.48;100.00;61774.03;4992581;28;20053;-69
2022/04/16 02:37:22;;;;;;;6.55;4.45;;;;;;;-139.48;100.00;61774.03;4993591;28;20054;-69
2022/04/16 02:40:07;;;;;;;9.10;5.30;;;;;;;-139.48;100.00;61774.03;4993741;28;20053;-69
2022/04/16 02:42:51;;;;;;;6.22;4.95;;;;;;;-139.48;100.00;61774.03;4996747;28;20054;-69
2022/04/16 02:48:39;;;;;;;7.68;5.38;;;;;;;-139.48;100.00;61774.03;4997380;28;20414;-69
2022/04/16 02:51:23;;;;;;;7.15;4.90;;;;;;;-139.48;100.00;61774.03;4996198;28;20452;-69
2022/04/16 02:54:06;;;;;;;6.15;5.25;;;;;;;-139.48;100.00;61774.03;4996443;28;20049;-69
2022/04/16 02:56:51;;;;;;;6.72;5.18;;;;;;;-139.48;100.00;61774.03;4996397;28;20558;-69
2022/04/16 02:59:35;;;;;;;6.93;5.30;;;;;;;-139.48;100.00;61774.03;4996110;28;20065;-69
2022/04/16 03:02:19;;;;;;;5.93;4.65;;;;;;;-139.48;100.00;61774.03;4996246;28;20050;-69
2022/04/16 03:05:06;;;;;;;7.15;5.30;;;;;;;-139.48;100.00;61774.03;4997464;28;20096;-69
2022/04/16 03:07:50;;;;;;;5.60;4.75;;;;;;;-139.48;100.00;61774.03;4997023;28;20049;-69
2022/04/16 03:10:34;;;;;;;7.82;4.95;;;;;;;-139.48;100.00;61774.03;4995987;28;20410;-69
2022/04/16 03:13:19;;;;;;;5.80;4.80;;;;;;;-139.48;100.00;61774.03;4995753;28;20088;-69
2022/04/16 03:19:06;;;;;;;5.30;4.30;;;;;;;-139.48;100.00;61774.03;4995647;28;20298;-69
2022/04/16 03:21:49;;;;;;;6.80;5.13;;;;;;;-139.48;100.00;61774.03;4996882;28;20053;-69
2022/04/16 03:24:34;;;;;;;6.57;5.15;;;;;;;-139.48;100.00;61774.03;4995845;28;20089;-69
2022/04/16 03:27:17;;;;;;;7.57;4.85;;;;;;;-139.48;100.00;61774.03;4996521;28;20103;-69
2022/04/16 03:30:02;;;;;;;6.95;5.40;;;;;;;-139.48;100.00;61774.03;4996608;28;20517;-69
2022/04/16 03:32:47;;;;;;;8.75;5.10;;;;;;;-139.48;100.00;61774.03;4996605;28;20085;-69
2022/04/16 03:35:31;;;;;;;11.50;6.07;;;;;;;-139.48;100.00;61774.03;4995401;28;20049;-69
2022/04/16 03:38:16;;;;;;;7.43;4.72;;;;;;;-139.48;100.00;61774.03;4996541;28;20056;-69
2022/04/16 03:41:00;;;;;;;7.90;5.95;;;;;;;-139.48;100.00;61774.03;4996383;28;20046;-69
2022/04/16 03:43:43;;;;;;;6.43;5.50;;;;;;;-139.48;100.00;61774.03;4996249;28;20057;-69
2022/04/16 03:46:27;;;;;;;6.65;4.90;;;;;;;-139.48;100.00;61774.03;4996428;28;20045;-69
2022/04/16 03:49:11;;;;;;;7.10;5.20;;;;;;;-139.48;100.00;61774.03;4995196;28;20097;-69
2022/04/16 03:51:55;;;;;;;6.07;5.30;;;;;;;-139.48;100.00;61774.03;4996192;28;20060;-69
2022/04/16 04:00:45;;;;;;;10.60;5.50;;;;;;;-139.48;100.00;61774.03;4995026;28;20073;-69
2022/04/16 04:03:30;;;;;;;8.80;6.38;;;;;;;-139.48;100.00;61774.03;4995118;28;20089;-69
2022/04/16 04:06:14;;;;;;;6.63;5.15;;;;;;;-139.48;100.00;61774.03;4994916;28;20080;-69
2022/04/16 04:08:59;;;;;;;7.97;5.03;;;;;;;-139.48;100.00;61774.03;4994676;28;20046;-69
2022/04/16 04:11:43;;;;;;;6.78;5.40;;;;;;;-139.48;100.00;61774.03;4994716;28;20132;-69
2022/04/16 04:14:27;;;;;;;7.35;5.75;;;;;;;-139.48;100.00;61774.03;4994937;28;20081;-69
2022/04/16 04:17:11;;;;;;;8.70;5.68;;;;;;;-139.48;100.00;61774.03;4994746;28;20049;-69
2022/04/16 04:19:55;;;;;;;7.15;5.65;;;;;;;-139.48;100.00;61774.03;4994345;28;20056;-69
2022/04/16 04:22:39;;;;;;;10.27;5.63;;;;;;;-139.48;100.00;61774.03;4995757;28;20104;-69
2022/04/16 04:25:24;;;;;;;6.80;5.65;;;;;;;-139.48;100.00;61774.03;4994787;28;20053;-69
2022/04/16 04:28:08;;;;;;;9.00;6.25;;;;;;;-139.48;100.00;61774.03;4994435;28;20049;-69
2022/04/16 04:30:51;;;;;;;7.82;5.80;;;;;;;-139.48;100.00;61774.03;4994587;28;20418;-69
2022/04/16 04:33:35;;;;;;;8.00;5.97;;;;;;;-139.48;100.00;61774.03;4995610;28;20485;-69
2022/04/16 04:36:19;;;;;;;7.68;5.65;;;;;;;-139.48;100.00;61774.03;4994259;28;20049;-69
2022/04/16 04:39:03;;;;;;;8.30;5.32;;;;;;;-139.48;100.00;61774.03;4995376;28;20045;-69
2022/04/16 04:41:47;;;;;;;9.93;5.90;;;;;;;-139.48;100.00;61774.03;4994141;28;20096;-69
2022/04/16 04:44:31;;;;;;;8.05;5.78;;;;;;;-139.48;100.00;61774.03;4994364;28;20122;-69
2022/04/16 04:47:15;;;;;;;;;;;;;;;-139.48;100.00;61774.03;4995714;28;20457;-69
2022/04/16 04:49:59;;;;;;;7.38;5.47;;;;;;;-139.48;100.00;61774.03;4994104;28;20348;-69
2022/04/16 04:52:43;;;;;;;7.57;6.07;;;;;;;-139.48;100.00;61774.03;4994929;28;20056;-69
2022/04/16 04:55:29;;;;;;;7.70;6.10;;;;;;;-139.48;100.00;61774.03;4993882;28;20049;-69
2022/04/16 04:58:13;;;;;;;8.93;5.95;;;;;;;-139.48;100.00;61774.03;4994085;28;20176;-69
2022/04/16 05:00:57;;;;;;;7.50;5.93;;;;;;;-139.48;100.00;61774.03;4995037;28;20129;-69
2022/04/16 05:03:41;;;;;;;7.55;5.45;;;;;;;-139.48;100.00;61774.03;4993953;28;20053;-69
2022/04/16 05:06:25;;;;;;;8.32;6.03;;;;;;;-139.48;100.00;61774.03;4994910;28;20057;-69
2022/04/16 05:09:10;;;;;;;9.98;5.78;;;;;;;-139.48;100.00;61774.03;4993691;28;20128;-69
2022/04/16 05:11:54;;;;;;;11.02;6.22;;;;;;;-139.48;100.00;61774.03;4993875;28;20057;-69
2022/04/16 05:14:38;;;;;;;8.40;6.05;;;;;;;-139.48;100.00;61774.03;4993803;28;20049;-69
2022/04/16 05:17:22;;;;;;;8.23;6.00;;;;;;;-139.48;100.00;61774.03;4993766;28;20410;-69
2022/04/16 05:20:09;;;;;;;10.20;5.72;;;;;;;-139.48;100.00;61774.03;4993274;28;20125;-69
2022/04/16 05:22:53;;;;;;;7.90;5.90;;;;;;;-139.48;100.00;61774.03;4993689;28;20470;-69
2022/04/16 05:25:37;;;;;;;9.63;5.93;;;;;;;-139.48;100.00;61774.03;4994342;28;20048;-69
2022/04/16 05:28:21;;;;;;;8.25;5.95;;;;;;;-139.48;100.00;61774.03;4993601;28;20458;-69
2022/04/16 05:31:06;;;;;;;10.50;6.10;;;;;;;-139.48;100.00;61774.03;4993276;28;20100;-69
2022/04/16 05:36:53;;;;;;;6.80;5.68;;;;;;;-139.48;100.00;61774.03;4993483;28;20576;-69
2022/04/16 05:39:38;;;;;;;7.30;5.78;;;;;;;-139.48;100.00;61774.03;4993316;28;20128;-69
2022/04/16 05:42:22;;;;;;;8.65;6.40;;;;;;;-139.48;100.00;61774.03;4993359;28;20053;-69
2022/04/16 05:45:06;;;;;;;;;;;;;;;-139.48;100.00;61774.03;4993764;28;20133;-69
2022/04/16 05:47:50;;;;;;;7.75;5.57;;;;;;;-139.48;100.00;61774.03;4994045;28;20421;-69
2022/04/16 05:50:34;;;;;;;7.80;5.65;;;;;;;-139.48;100.00;61774.03;4992974;28;20037;-69
2022/04/16 05:53:18;;;;;;;8.13;5.22;;;;;;;-139.48;100.00;61774.03;4994241;28;20513;-69
2022/04/16 05:56:03;;;;;;;7.00;5.45;;;;;;;-139.48;100.00;61774.03;4993116;28;20054;-69
2022/04/16 05:58:46;;;;;;;;;;;;;;;-139.48;100.00;61774.03;4979737;28;20100;-69
2022/04/16 06:01:30;;;;;;;13.90;8.55;;;;;;;-139.48;100.00;61774.03;4993396;28;19997;-69
2022/04/16 06:04:14;;;;;;;;;;;;;;;-139.48;100.00;61774.03;4993501;28;20053;-69
2022/04/16 06:06:58;;;;;;;14.95;6.95;;;;;;;-139.48;100.00;61774.03;4993123;28;19921;-70
2022/04/16 06:09:42;;;;;;;9.65;6.20;;;;;;;-139.48;100.00;61774.03;4992935;28;20045;-69
2022/04/16 06:12:26;;;;;;;9.80;6.13;;;;;;;-139.48;100.00;61774.03;4992733;28;20061;-69
2022/04/16 06:15:11;;;;;;;7.70;6.32;;;;;;;-139.48;100.00;61774.03;4993030;28;20096;-69
2022/04/16 06:17:54;;;;;;;6.45;5.22;;;;;;;-139.48;100.00;61774.03;4997026;28;20088;-69
2022/04/16 06:20:39;;;;;;;7.75;5.93;;;;;;;-139.48;100.00;61774.03;4997572;28;20145;-69
2022/04/16 06:23:22;;;;;;;7.07;5.90;;;;;;;-139.48;100.00;61774.03;4996971;28;20525;-69
2022/04/16 06:26:06;;;;;;;6.65;5.40;;;;;;;-139.48;100.00;61774.03;4998194;28;20064;-69
2022/04/16 06:28:50;;;;;;;8.02;6.13;;;;;;;-139.48;100.00;61774.03;4996790;28;20077;-70
2022/04/16 06:31:35;;;;;;;8.95;5.65;;;;;;;-139.48;100.00;61774.03;4997153;28;20500;-69
2022/04/16 06:34:19;;;;;;;7.15;5.35;;;;;;;-139.48;100.00;61774.03;4996768;28;20088;-69
2022/04/16 06:37:03;;;;;;;13.45;5.45;;;;;;;-139.48;100.00;61774.03;4996517;28;20499;-69
2022/04/16 06:39:47;;;;;;;7.70;5.63;;;;;;;-139.48;100.00;61774.03;4997355;28;20092;-70
2022/04/16 06:42:31;;;;;;;10.88;5.65;;;;;;;-139.48;100.00;61774.03;4996366;28;20105;-69
2022/04/16 06:45:15;;;;;;;6.90;5.07;;;;;;;-139.48;100.00;61774.03;4996290;28;20084;-70
2022/04/16 06:47:59;;;;;;;8.43;4.80;;;;;;;-139.48;100.00;61774.03;4996544;28;20076;-69
2022/04/16 06:50:43;;;;;;;7.25;5.45;;;;;;;-139.48;100.00;61774.03;4996082;28;20041;-69
2022/04/16 06:53:27;;;;;;;5.72;4.55;;;;;;;-139.48;100.00;61774.03;4997142;28;20061;-69
2022/04/16 06:56:11;;;;;;;6.95;5.03;;;;;;;-139.48;100.00;61774.03;4982558;28;20128;-69
2022/04/16 06:58:55;;;;;;;9.85;5.25;;;;;;;-139.48;100.00;61774.03;4996258;28;20053;-70
2022/04/16 07:01:39;;;;;;;6.22;4.97;;;;;;;-139.48;100.00;61774.03;4997273;28;20053;-69
2022/04/16 07:04:23;;;;;;;7.00;5.35;;;;;;;-139.48;100.00;61774.03;4996319;28;20056;-69
2022/04/16 07:07:08;;;;;;;7.18;4.53;;;;;;;-139.48;100.00;61774.03;4997121;28;20049;-69
2022/04/16 07:09:53;;;;;;;4.93;4.20;;;;;;;-139.48;100.00;61774.03;4995806;28;20048;-69
2022/04/16 07:12:38;;;;;;;5.25;3.67;;;;;;;-139.48;100.00;61774.03;4996096;28;20134;-69
2022/04/16 07:15:22;;;;;;;5.28;3.80;;;;;;;-139.48;100.00;61774.03;4996997;28;20049;-69
2022/04/16 07:18:07;;;;;;;4.80;3.88;;;;;;;-139.48;100.00;61774.03;4995933;28;20057;-69
2022/04/16 07:20:51;;;;;;;4.80;3.90;;;;;;;-139.48;100.00;61774.03;4997159;28;20053;-69
2022/04/16 07:23:35;;;;;;;5.40;4.07;;;;;;;-139.48;100.00;61774.03;4995606;28;20045;-69
2022/04/16 07:26:19;;;;;;;4.78;4.05;;;;;;;-139.48;100.00;61774.03;4995845;28;20044;-69
2022/04/16 07:29:03;;;;;;;4.45;3.90;;;;;;;-139.48;100.00;61774.03;4996079;28;20049;-69
2022/04/16 07:31:47;;;;;;;5.57;4.25;;;;;;;-139.48;100.00;61774.03;4995534;28;20057;-69
2022/04/16 07:34:31;;;;;;;4.95;3.70;;;;;;;-139.48;100.00;61774.03;4995359;28;20151;-69
2022/04/16 07:37:15;;;;;;;5.32;4.00;;;;;;;-139.48;100.00;61774.03;4995634;28;20084;-69
2022/04/16 07:39:59;;;;;;;7.05;4.72;;;;;;;-139.48;100.00;61774.03;4995377;28;20108;-69
2022/04/16 07:42:43;;;;;;;5.75;4.38;;;;;;;-139.48;100.00;61774.03;4995548;28;20552;-68
2022/04/16 07:45:27;;;;;;;5.30;4.30;;;;;;;-139.48;100.00;61774.03;4995248;28;20061;-69
2022/04/16 07:48:11;;;;;;;5.70;4.30;;;;;;;-139.48;100.00;61774.03;4996124;28;20069;-69
2022/04/16 07:50:55;;;;;;;5.72;4.20;;;;;;;-139.48;100.00;61774.03;4996062;28;20045;-69
2022/04/16 07:53:39;;;;;;;;;;;;;;;-139.48;100.00;61774.03;4995786;28;20153;-69
2022/04/16 07:56:24;;;;;;;6.68;4.85;;;;;;;-139.48;100.00;61774.03;4995378;28;19921;-68
2022/04/16 07:59:08;;;;;;;4.97;4.38;;;;;;;-139.48;100.00;61774.03;4994798;28;20045;-69
2022/04/16 08:01:52;;;;;;;4.43;3.80;;;;;;;-139.48;100.00;61774.03;4995185;28;20104;-69
2022/04/16 08:04:36;;;;;;;5.63;4.15;;;;;;;-139.48;100.00;61774.03;4995109;28;20057;-69
2022/04/16 08:07:19;;;;;;;6.60;4.40;;;;;;;-139.48;100.00;61774.03;4996038;28;20053;-69
2022/04/16 08:10:04;;;;;;;7.13;6.40;;;;;;;-139.48;100.00;61774.03;4994588;28;20042;-69
2022/04/16 08:12:48;;;;;;;6.93;4.75;;;;;;;-139.48;100.00;61774.03;4995968;28;20469;-69
2022/04/16 08:15:32;;;;;;;5.40;3.78;;;;;;;-139.48;100.00;61774.03;4994604;28;20157;-69
2022/04/16 08:18:16;;;;;;;5.03;3.85;;;;;;;-139.48;100.00;61774.03;4995774;28;20137;-69
2022/04/16 08:21:00;;;;;;;7.80;4.65;;;;;;;-139.48;100.00;61774.03;4994791;28;20045;-69
2022/04/16 08:23:55;;;;;;;4.63;3.67;;;;;;;-139.48;100.00;61774.03;4994488;28;20053;-68
2022/04/16 08:26:42;;;;;;;5.25;3.80;;;;;;;-139.48;100.00;61774.03;4994699;28;20125;-69
2022/04/16 08:29:26;;;;;;;8.15;3.95;;;;;;;-139.48;100.00;61774.03;4995234;28;20550;-69
2022/04/16 08:32:09;;;;;;;6.65;4.25;;;;;;;-139.48;100.00;61774.03;4995314;28;20141;-69
2022/04/16 08:34:54;;;;;;;7.68;4.25;;;;;;;-139.48;100.00;61774.03;4995388;28;20502;-69
2022/04/16 08:37:38;;;;;;;6.05;4.18;;;;;;;-139.48;100.00;61774.03;4995215;28;20422;-69
2022/04/16 08:40:22;;;;;;;9.23;4.50;;;;;;;-139.48;100.00;61774.03;4993261;28;20049;-69
2022/04/16 08:43:07;;;;;;;4.32;3.45;;;;;;;-139.48;100.00;61774.03;4993987;28;20061;-69
2022/04/16 08:45:53;;;;;;;4.82;3.45;;;;;;;-139.48;100.00;61774.03;4995034;28;20049;-69
2022/04/16 08:48:37;;;;;;;5.15;3.80;;;;;;;-139.48;100.00;61774.03;4994137;28;20084;-69
2022/04/16 08:51:20;;;;;;;5.00;3.85;;;;;;;-139.48;100.00;61774.03;4994761;28;20112;-69
2022/04/16 08:54:05;;;;;;;4.70;3.83;;;;;;;-139.48;100.00;61774.03;4994293;28;20097;-68
2022/04/16 08:56:48;;;;;;;;;;;;;;;-139.48;100.00;61774.03;4995181;28;20052;-69
2022/04/16 08:59:33;;;;;;;6.93;4.00;;;;;;;-139.48;100.00;61774.03;4993753;28;19920;-69
2022/04/16 09:02:19;;;;;;;4.20;3.45;;;;;;;-139.48;100.00;61774.03;4993853;28;20057;-69
2022/04/16 09:05:06;;;;;;;4.65;3.78;;;;;;;-139.48;100.00;61774.03;4994789;28;20510;-69
2022/04/16 09:07:52;;;;;;;4.55;3.83;;;;;;;-139.48;100.00;61774.03;4994055;28;20057;-69
2022/04/16 09:10:38;;;;;;;5.50;3.65;;;;;;;-139.48;100.00;61774.03;4993690;28;20120;-69
2022/04/16 09:13:22;;;;;;;5.50;3.80;;;;;;;-139.48;100.00;61774.03;4994795;28;20145;-68
2022/04/16 09:16:06;;;;;;;5.30;3.70;;;;;;;-139.48;100.00;61774.03;4993718;28;20072;-69
2022/04/16 09:18:52;;;;;;;5.38;3.65;;;;;;;-139.48;100.00;61774.03;4994739;28;20049;-69
2022/04/16 09:21:36;;;;;;;4.97;3.88;;;;;;;-139.48;100.00;61774.03;4993692;28;20053;-69
2022/04/16 09:24:20;;;;;;;4.53;3.75;;;;;;;-139.48;100.00;61774.03;4993682;28;20169;-69
2022/04/16 09:27:07;;;;;;;4.40;3.78;;;;;;;-139.48;100.00;61774.03;4993597;28;20101;-69
2022/04/16 09:29:54;;;;;;;5.15;3.70;;;;;;;-139.48;100.00;61774.03;4994512;28;20037;-69
2022/04/16 09:32:44;;;;;;;7.00;3.63;;;;;;;-139.48;100.00;61774.03;4993353;28;20105;-69
2022/04/16 09:35:35;;;;;;;4.07;3.67;;;;;;;-139.48;100.00;61774.03;4993203;28;20080;-69
2022/04/16 09:38:19;;;;;;;4.80;3.72;;;;;;;-139.48;100.00;61774.03;5007278;28;20525;-69
2022/04/16 09:41:08;;;;;;;5.72;3.90;;;;;;;-139.48;100.00;61774.03;4993339;28;20108;-69
2022/04/16 09:43:52;;;;;;;5.78;4.03;;;;;;;-139.48;100.00;61774.03;4993345;28;20092;-69
2022/04/16 09:46:36;;;;;;;7.88;4.20;;;;;;;-139.48;100.00;61774.03;4993042;28;20084;-68
2022/04/16 09:49:21;;;;;;;5.00;3.90;;;;;;;-139.48;100.00;61774.03;4992704;28;21979;-69
2022/04/16 09:52:05;;;;;;;5.82;3.90;;;;;;;-139.48;100.00;61774.03;4993700;28;20053;-69
2022/04/16 09:54:50;;;;;;;7.28;3.95;;;;;;;-139.48;100.00;61774.03;4992832;28;20048;-69
2022/04/16 09:57:38;;;;;;;4.20;3.30;;;;;;;-139.48;100.00;61774.03;4979398;28;20049;-69
2022/04/16 10:00:23;;;;;;;3.75;3.30;;;;;;;-139.48;100.00;61774.03;4992830;28;20126;-69
2022/04/16 10:03:07;;;;;;;4.10;3.65;;;;;;;-139.48;100.00;61774.03;4993153;28;20482;-69
2022/04/16 10:05:52;;;;;;;4.80;3.40;;;;;;;-139.48;100.00;61774.03;4993119;28;20049;-69
2022/04/16 10:08:36;;;;;;;6.15;3.47;;;;;;;-139.48;100.00;61774.03;4993781;28;20581;-69
2022/04/16 10:11:40;;;;;;;3.10;2.78;;;;;;;-139.48;100.00;61774.03;4993140;28;20052;-70
2022/04/16 10:14:47;;;;;;;3.42;2.65;;;;;;;-139.48;100.00;61774.03;4993369;28;20108;-70
2022/04/16 10:17:35;;;;;;;3.72;2.88;;;;;;;-139.48;100.00;61774.03;4992748;28;20060;-70
2022/04/16 10:20:20;;;;;;;3.83;3.10;;;;;;;-139.48;100.00;61774.03;4992522;28;20048;-70
2022/04/16 10:23:05;;;;;;;3.05;2.75;;;;;;;-139.48;100.00;61774.03;4992714;28;20518;-70
2022/04/16 10:25:50;;;;;;;4.75;3.30;;;;;;;-139.48;100.00;61774.03;4992672;28;20045;-69
2022/04/16 10:28:39;;;;;;;4.20;3.42;;;;;;;-139.48;100.00;61774.03;4992624;28;20053;-69
2022/04/16 10:31:28;;;;;;;4.28;3.38;;;;;;;-139.48;100.00;61774.03;4992878;28;20122;-69
2022/04/16 10:34:13;;;;;;;4.32;3.38;;;;;;;-139.48;100.00;61774.03;4993596;28;20057;-69
2022/04/16 10:36:57;;;;;;;3.22;2.55;;;;;;;-139.48;100.00;61774.03;4993871;28;20054;-69
2022/04/16 10:39:43;;;;;;;3.97;2.17;;;;;;;-139.48;100.00;61774.03;4993753;28;20049;-69
2022/04/16 10:42:32;;;;;;;2.22;1.88;;;;;;;-139.48;100.00;61774.03;4992583;28;20461;-69
2022/04/16 10:45:17;;;;;;;2.75;2.15;;;;;;;-139.48;100.00;61774.03;4992493;28;20502;-69
2022/04/16 10:48:02;;;;;;;3.25;2.80;;;;;;;-139.48;100.00;61774.03;4992958;28;20514;-69
2022/04/16 10:50:47;;;;;;;5.28;2.90;;;;;;;-139.48;100.00;61774.03;4992325;28;20069;-69
2022/04/16 10:53:35;;;;;;;4.30;3.20;;;;;;;-139.48;100.00;61774.03;4992777;28;20057;-69
2022/04/16 10:56:22;;;;;;;3.90;3.22;;;;;;;-139.48;100.00;61774.03;4978940;28;20568;-69
2022/04/16 10:59:08;;;;;;;4.18;3.30;;;;;;;-139.48;100.00;61774.03;4993217;28;20430;-68
2022/04/16 11:01:53;;;;;;;4.30;3.20;;;;;;;-139.48;100.00;61774.03;4993698;28;20541;-69
2022/04/16 11:04:37;;;;;;;3.17;2.53;;;;;;;-139.48;100.00;61774.03;4996034;28;20052;-69
2022/04/16 11:07:26;;;;;;;3.47;2.63;;;;;;;-139.48;100.00;61774.03;4995922;28;20056;-69
2022/04/16 11:10:11;;;;;;;3.33;2.70;;;;;;;-139.48;100.00;61774.03;4996925;28;20045;-69
2022/04/16 11:12:57;;;;;;;3.33;2.00;;;;;;;-139.48;100.00;61774.03;4996010;28;20053;-68
2022/04/16 11:15:41;;;;;;;3.00;2.70;;;;;;;-139.48;100.00;61774.03;4996054;28;20053;-68
2022/04/16 11:18:26;;;;;;;4.78;2.83;;;;;;;-139.48;100.00;61774.03;4996740;28;20122;-69
2022/04/16 11:21:13;;;;;;;3.10;2.80;;;;;;;-139.48;100.00;61774.03;4996827;28;20088;-69
2022/04/16 11:24:04;;;;;;;5.10;2.78;;;;;;;-139.48;100.00;61774.03;4995572;28;20053;-69
2022/04/16 11:36:11;;;;;;;3.03;2.65;;;;;;;-139.48;100.00;61774.03;4995858;28;20052;-69
2022/04/16 11:38:55;;;;;;;5.18;2.60;;;;;;;-139.48;100.00;61774.03;4995301;28;20523;-69
2022/04/16 11:41:38;;;;;;;;;;;;;;;-139.48;100.00;61774.03;4995910;28;20414;-69
2022/04/16 11:44:28;;;;;;;3.00;2.47;;;;;;;-139.48;100.00;61774.03;4995556;28;19969;-69
2022/04/16 11:47:18;;;;;;;3.33;2.63;;;;;;;-139.48;100.00;61774.03;5009334;28;20072;-69
2022/04/16 11:50:06;;;;;;;6.88;2.63;;;;;;;-139.48;100.00;61774.03;4995946;28;20045;-68
2022/04/16 11:52:51;;;;;;;3.45;2.85;;;;;;;-139.48;100.00;61774.03;4995087;28;20568;-69
2022/04/16 11:55:44;;;;;;;2.40;2.20;;;;;;;-139.48;100.00;61774.03;4995383;28;20045;-69
2022/04/16 11:58:29;;;;;;;2.22;2.03;;;;;;;-139.48;100.00;61774.03;4995103;28;20049;-69
2022/04/16 12:01:13;;;;;;;3.10;2.53;;;;;;;-139.48;100.00;61774.03;4994940;28;20096;-69
2022/04/16 12:04:06;;;;;;;2.17;1.98;;;;;;;-139.48;100.00;61774.03;4995195;28;20053;-70
2022/04/16 12:06:53;;;;;;;2.17;2.00;;;;;;;-139.48;100.00;61774.03;4995411;28;20098;-69
2022/04/16 12:09:43;;;;;;;3.13;2.10;;;;;;;-139.48;100.00;61774.03;4995981;28;20046;-69
2022/04/16 12:12:28;;;;;;;2.17;1.98;;;;;;;-139.48;100.00;61774.03;4995227;28;20509;-70
2022/04/16 12:15:12;;;;;;;2.00;1.83;;;;;;;-139.48;100.00;61774.03;4994571;28;20050;-70
2022/04/16 12:17:58;;;;;;;2.53;2.20;;;;;;;-139.48;100.00;61774.03;4994953;28;20107;-70
2022/04/16 12:20:43;;;;;;;2.45;1.92;;;;;;;-139.48;100.00;61774.03;4994684;28;20100;-69
2022/04/16 12:23:30;;;;;;;3.60;2.05;;;;;;;-139.48;100.00;61774.03;4994715;28;20095;-69
2022/04/16 12:26:16;;;;;;;2.00;1.80;;;;;;;-139.48;100.00;61774.03;4994716;28;20564;-69
2022/04/16 12:29:08;;;;;;;1.83;1.73;;;;;;;-139.48;100.00;61774.03;4994849;28;20053;-70
2022/04/16 12:31:58;;;;;;;3.10;1.70;;;;;;;-139.48;100.00;61774.03;4994539;28;20100;-69
2022/04/16 12:34:43;;;;;;;2.00;1.80;;;;;;;-139.48;100.00;61774.03;4994327;28;20100;-69
2022/04/16 12:37:27;;;;;;;1.80;1.70;;;;;;;-139.48;100.00;61774.03;4995162;28;20052;-70
2022/04/16 12:40:11;;;;;;;2.00;1.80;;;;;;;-139.48;100.00;61774.03;4994065;28;20185;-69
2022/04/16 12:42:59;;;;;;;5.13;2.10;;;;;;;-139.48;100.00;61774.03;4994395;28;20052;-70
2022/04/16 12:45:43;;;;;;;4.72;1.77;;;;;;;-139.48;100.00;61774.03;4995175;28;20069;-70
2022/04/16 12:48:27;;;;;;;2.80;2.05;;;;;;;-139.48;100.00;61774.03;4994401;28;20397;-70
2022/04/16 12:51:11;;;;;;;4.10;1.85;;;;;;;-139.48;100.00;61774.03;4993859;28;20053;-69
2022/04/16 12:53:55;;;;;;;3.95;1.85;;;;;;;-139.48;100.00;61774.03;4993910;28;20049;-69